Time;durP1;ratioP1;P1;durP2;ratioP2;P2;SDS_P1;SDS_P2;PMS_P1;PMS_P2;Temp;Humidity;BMP_temperature;BMP_pressure;BME280_temperature;BME280_humidity;BME280_pressure;Samples;Min_cycle;Max_cycle;Signal;HPM_P1;HPM_P2
2023/04/11 00:01:11;;;;;;;;;;;;;;;;;;5026362;28;44024;-75
2023/04/11 00:03:37;;;;;;;;;;;;;;;;;;5046218;28;42948;-75
2023/04/11 00:06:03;;;;;;;;;;;;;;;;;;5045198;28;43732;-74
2023/04/11 00:08:29;;;;;;;;;;;;;;;;;;5045249;28;43062;-75
2023/04/11 00:10:55;;;;;;;;;;;;;;;;;;5045610;28;43884;-75
2023/04/11 00:13:23;;;;;;;;;;;;;;;;;;5044159;28;43286;-75
2023/04/11 00:15:54;;;;;;;;;;;;;;;;;;5044928;28;43041;-75
2023/04/11 00:18:20;;;;;;;;;;;;;;;;;;5044202;28;43016;-75
2023/04/11 00:20:46;;;;;;;;;;;;;;;;;;5045054;28;43028;-75
2023/04/11 00:23:12;;;;;;;;;;;;;;;;;;5046190;28;42730;-74
2023/04/11 00:25:37;;;;;;;;;;;;;;;;;;5045000;28;43058;-75
2023/04/11 00:28:03;;;;;;;;;;;;;;;;;;5046158;28;43027;-77
2023/04/11 00:30:29;;;;;;;;;;;;;;;;;;5045021;28;43536;-77
2023/04/11 00:32:55;;;;;;;;;;;;;;;;;;5045810;28;42963;-75
2023/04/11 00:35:21;;;;;;;;;;;;;;;;;;5045438;28;44133;-74
2023/04/11 00:37:52;;;;;;;;;;;;;;;;;;5045423;28;42982;-84
2023/04/11 00:40:19;;;;;;;;;;;;;;;;;;5043962;28;43806;-75
2023/04/11 00:42:45;;;;;;;;;;;;;;;;;;5045718;28;43104;-75
2023/04/11 00:45:11;;;;;;;;;;;;;;;;;;5045310;28;43860;-74
2023/04/11 00:47:37;;;;;;;;;;;;;;;;;;5045484;28;43041;-75
2023/04/11 00:50:03;;;;;;;;;;;;;;;;;;5043782;28;43452;-75
2023/04/11 00:52:29;;;;;;;;;;;;;;;;;;5045518;28;43495;-76
2023/04/11 00:54:55;;;;;;;;;;;;;;;;;;5043907;28;44269;-76
2023/04/11 00:57:21;;;;;;;;;;;;;;;;;;5044609;28;43012;-75
2023/04/11 00:59:47;;;;;;;;;;;;;;;;;;5043187;28;43064;-75
2023/04/11 01:02:13;;;;;;;;;;;;;;;;;;5045001;28;42866;-74
2023/04/11 01:04:39;;;;;;;;;;;;;;;;;;5043080;28;44048;-76
2023/04/11 01:07:05;;;;;;;;;;;;;;;;;;5044897;28;42853;-74
2023/04/11 01:09:31;;;;;;;;;;;;;;;;;;5043508;28;42934;-78
2023/04/11 01:11:57;;;;;;;;;;;;;;;;;;5032366;28;42876;-74
2023/04/11 01:14:22;;;;;;;;;;;;;;;;;;5044545;28;43230;-75
2023/04/11 01:16:49;;;;;;;;;;;;;;;;;;5044723;28;42927;-75
2023/04/11 01:19:16;;;;;;;;;;;;;;;;;;5044087;28;43855;-74
2023/04/11 01:21:42;;;;;;;;;;;;;;;;;;5044996;28;42825;-74
2023/04/11 01:24:08;;;;;;;;;;;;;;;;;;5044883;28;43023;-75
2023/04/11 01:26:34;;;;;;;;;;;;;;;;;;5044967;28;42876;-75
2023/04/11 01:29:00;;;;;;;;;;;;;;;;;;5044555;28;43871;-75
2023/04/11 01:31:26;;;;;;;;;;;;;;;;;;5036905;28;43035;-74
2023/04/11 01:33:52;;;;;;;;;;;;;;;;;;5038825;28;45017;-76
2023/04/11 01:36:18;;;;;;;;;;;;;;;;;;5043782;28;42967;-75
2023/04/11 01:38:44;;;;;;;;;;;;;;;;;;5044242;28;42961;-75
2023/04/11 01:41:09;;;;;;;;;;;;;;;;;;5044636;28;42864;-76
2023/04/11 01:43:35;;;;;;;;;;;;;;;;;;5043794;28;42878;-76
2023/04/11 01:46:01;;;;;;;;;;;;;;;;;;5043767;28;42958;-75
2023/04/11 01:48:27;;;;;;;;;;;;;;;;;;5043941;28;43313;-76
2023/04/11 01:50:55;;;;;;;;;;;;;;;;;;5042991;28;43181;-75
2023/04/11 01:53:21;;;;;;;;;;;;;;;;;;5043608;28;43044;-75
2023/04/11 01:55:46;;;;;;;;;;;;;;;;;;5041930;28;42986;-74
2023/04/11 01:58:12;;;;;;;;;;;;;;;;;;5044145;28;42943;-75
2023/04/11 02:00:38;;;;;;;;;;;;;;;;;;5042708;28;43281;-75
2023/04/11 02:03:04;;;;;;;;;;;;;;;;;;5043265;28;43507;-77
2023/04/11 02:05:30;;;;;;;;;;;;;;;;;;5042849;28;42955;-75
2023/04/11 02:07:56;;;;;;;;;;;;;;;;;;5042623;28;43845;-75
2023/04/11 02:10:22;;;;;;;;;;;;;;;;;;5043077;28;42889;-76
2023/04/11 02:12:48;;;;;;;;;;;;;;;;;;5042976;28;42893;-77
2023/04/11 02:15:14;;;;;;;;;;;;;;;;;;5042952;28;42850;-76
2023/04/11 02:17:43;;;;;;;;;;;;;;;;;;5043821;28;43541;-76
2023/04/11 02:20:09;;;;;;;;;;;;;;;;;;5043241;28;42947;-75
2023/04/11 02:22:35;;;;;;;;;;;;;;;;;;5039180;28;43730;-75
2023/04/11 02:25:01;;;;;;;;;;;;;;;;;;5043470;28;42751;-74
2023/04/11 02:27:27;;;;;;;;;;;;;;;;;;5043629;28;42965;-75
2023/04/11 02:29:53;;;;;;;;;;;;;;;;;;5043285;28;42889;-75
2023/04/11 02:32:19;;;;;;;;;;;;;;;;;;5042898;28;42992;-76
2023/04/11 02:34:45;;;;;;;;;;;;;;;;;;5043697;28;43081;-76
2023/04/11 02:37:11;;;;;;;;;;;;;;;;;;5043506;28;42917;-74
2023/04/11 02:39:37;;;;;;;;;;;;;;;;;;5042509;28;42987;-74
2023/04/11 02:42:03;;;;;;;;;;;;;;;;;;5042686;28;43933;-77
2023/04/11 02:44:29;;;;;;;;;;;;;;;;;;5042259;28;42940;-76
2023/04/11 02:46:55;;;;;;;;;;;;;;;;;;5042567;28;43970;-75
2023/04/11 02:49:21;;;;;;;;;;;;;;;;;;5042945;28;43053;-74
2023/04/11 02:51:47;;;;;;;;;;;;;;;;;;5043255;28;43094;-75
2023/04/11 02:54:13;;;;;;;;;;;;;;;;;;5043372;28;43019;-75
2023/04/11 02:56:39;;;;;;;;;;;;;;;;;;5042834;28;44212;-74
2023/04/11 02:59:05;;;;;;;;;;;;;;;;;;5041769;28;43008;-75
2023/04/11 03:01:32;;;;;;;;;;;;;;;;;;5041837;28;42877;-75
2023/04/11 03:03:58;;;;;;;;;;;;;;;;;;5041446;28;43304;-77
2023/04/11 03:06:24;;;;;;;;;;;;;;;;;;5040638;28;44084;-77
2023/04/11 03:08:51;;;;;;;;;;;;;;;;;;5041979;28;42891;-76
2023/04/11 03:11:17;;;;;;;;;;;;;;;;;;5042351;28;43043;-76
2023/04/11 03:13:43;;;;;;;;;;;;;;;;;;5040417;28;43088;-77
2023/04/11 03:16:08;;;;;;;;;;;;;;;;;;5042186;28;43343;-77
2023/04/11 03:18:34;;;;;;;;;;;;;;;;;;5042502;28;42984;-77
2023/04/11 03:21:00;;;;;;;;;;;;;;;;;;5039590;28;43601;-76
2023/04/11 03:23:26;;;;;;;;;;;;;;;;;;5042069;28;43124;-76
2023/04/11 03:25:52;;;;;;;;;;;;;;;;;;5024465;28;43687;-76
2023/04/11 03:28:18;;;;;;;;;;;;;;;;;;5041401;28;42964;-77
2023/04/11 03:30:45;;;;;;;;;;;;;;;;;;5042760;28;43002;-83
2023/04/11 03:33:11;;;;;;;;;;;;;;;;;;5044116;28;42985;-77
2023/04/11 03:35:36;;;;;;;;;;;;;;;;;;5046027;28;43862;-77
2023/04/11 03:38:02;;;;;;;;;;;;;;;;;;5045620;28;42981;-76
2023/04/11 03:40:28;;;;;;;;;;;;;;;;;;5026941;28;44573;-76
2023/04/11 03:42:54;;;;;;;;;;;;;;;;;;5044833;28;43305;-76
2023/04/11 03:45:20;;;;;;;;;;;;;;;;;;5045525;28;43208;-76
2023/04/11 03:47:46;;;;;;;;;;;;;;;;;;5037541;28;42982;-76
2023/04/11 03:50:12;;;;;;;;;;;;;;;;;;5045946;28;43528;-77
2023/04/11 03:52:38;;;;;;;;;;;;;;;;;;5045999;28;43094;-77
2023/04/11 03:55:04;;;;;;;;;;;;;;;;;;5045635;28;43644;-78
2023/04/11 03:57:31;;;;;;;;;;;;;;;;;;5045604;28;43223;-76
2023/04/11 03:59:57;;;;;;;;;;;;;;;;;;5045077;28;42937;-77
2023/04/11 04:02:22;;;;;;;;;;;;;;;;;;5045473;28;43014;-76
2023/04/11 04:04:57;;;;;;;;;;;;;;;;;;5044651;28;44411;-78
2023/04/11 04:07:23;;;;;;;;;;;;;;;;;;5045504;28;42991;-78
2023/04/11 04:09:49;;;;;;;;;;;;;;;;;;5045147;28;43098;-77
2023/04/11 04:12:18;;;;;;;;;;;;;;;;;;5026386;28;43039;-76
2023/04/11 04:14:44;;;;;;;;;;;;;;;;;;5045435;28;43984;-76
2023/04/11 04:17:10;;;;;;;;;;;;;;;;;;5044876;28;43089;-76
2023/04/11 04:19:36;;;;;;;;;;;;;;;;;;5043502;28;43481;-76
2023/04/11 04:22:02;;;;;;;;;;;;;;;;;;5045768;28;42943;-75
2023/04/11 04:24:28;;;;;;;;;;;;;;;;;;5045222;28;43434;-76
2023/04/11 04:26:56;;;;;;;;;;;;;;;;;;5045492;28;42817;-76
2023/04/11 04:29:22;;;;;;;;;;;;;;;;;;5043733;28;44222;-76
2023/04/11 04:31:51;;;;;;;;;;;;;;;;;;5042925;28;42960;-76
2023/04/11 04:34:20;;;;;;;;;;;;;;;;;;5025130;28;44225;-76
2023/04/11 04:36:46;;;;;;;;;;;;;;;;;;5036777;28;43017;-76
2023/04/11 04:39:16;;;;;;;;;;;;;;;;;;5045212;28;42936;-76
2023/04/11 04:41:42;;;;;;;;;;;;;;;;;;5044724;28;42929;-76
2023/04/11 04:44:08;;;;;;;;;;;;;;;;;;5044922;28;42825;-77
2023/04/11 04:46:35;;;;;;;;;;;;;;;;;;5043103;28;43165;-76
2023/04/11 04:49:01;;;;;;;;;;;;;;;;;;5034391;28;43289;-76
2023/04/11 04:51:29;;;;;;;;;;;;;;;;;;5044412;28;43032;-82
2023/04/11 04:53:56;;;;;;;;;;;;;;;;;;5043756;28;43499;-76
2023/04/11 04:56:22;;;;;;;;;;;;;;;;;;5044662;28;43084;-75
2023/04/11 04:58:48;;;;;;;;;;;;;;;;;;5042916;28;43827;-77
2023/04/11 05:01:15;;;;;;;;;;;;;;;;;;5042933;28;42966;-76
2023/04/11 05:03:43;;;;;;;;;;;;;;;;;;5044849;28;43424;-76
2023/04/11 05:06:09;;;;;;;;;;;;;;;;;;5044081;28;42976;-76
2023/04/11 05:08:35;;;;;;;;;;;;;;;;;;5042866;28;42952;-76
2023/04/11 05:11:01;;;;;;;;;;;;;;;;;;5044710;28;43490;-76
2023/04/11 05:13:27;;;;;;;;;;;;;;;;;;5024187;28;43766;-75
2023/04/11 05:15:53;;;;;;;;;;;;;;;;;;5044182;28;42988;-76
2023/04/11 05:18:19;;;;;;;;;;;;;;;;;;5042106;28;43342;-76
2023/04/11 05:20:45;;;;;;;;;;;;;;;;;;5044220;28;43086;-75
2023/04/11 05:23:10;;;;;;;;;;;;;;;;;;5044406;28;42947;-75
2023/04/11 05:25:36;;;;;;;;;;;;;;;;;;5025176;28;43072;-76
2023/04/11 05:28:02;;;;;;;;;;;;;;;;;;5043704;28;43550;-76
2023/04/11 05:30:28;;;;;;;;;;;;;;;;;;5041119;28;43034;-77
2023/04/11 05:32:54;;;;;;;;;;;;;;;;;;5030944;28;43024;-77
2023/04/11 05:35:21;;;;;;;;;;;;;;;;;;5039740;28;43043;-78
2023/04/11 05:37:46;;;;;;;;;;;;;;;;;;5035380;28;42976;-76
2023/04/11 05:40:13;;;;;;;;;;;;;;;;;;5043166;28;43191;-77
2023/04/11 05:42:39;;;;;;;;;;;;;;;;;;5035869;28;43086;-77
2023/04/11 05:45:05;;;;;;;;;;;;;;;;;;5041483;28;43127;-77
2023/04/11 05:47:31;;;;;;;;;;;;;;;;;;5043129;28;43086;-78
2023/04/11 05:49:57;;;;;;;;;;;;;;;;;;5043620;28;42968;-76
2023/04/11 05:52:23;;;;;;;;;;;;;;;;;;5043954;28;42955;-76
2023/04/11 05:54:48;;;;;;;;;;;;;;;;;;5040114;28;42975;-77
2023/04/11 05:57:16;;;;;;;;;;;;;;;;;;5043432;28;43835;-77
2023/04/11 05:59:42;;;;;;;;;;;;;;;;;;5036493;28;43019;-77
2023/04/11 06:02:08;;;;;;;;;;;;;;;;;;5041987;28;43687;-78
2023/04/11 06:04:33;;;;;;;;;;;;;;;;;;5043660;28;42825;-78
2023/04/11 06:07:01;;;;;;;;;;;;;;;;;;5022290;28;44100;-77
2023/04/11 06:09:27;;;;;;;;;;;;;;;;;;5022654;28;43012;-78
2023/04/11 06:11:53;;;;;;;;;;;;;;;;;;5015309;28;43020;-77
2023/04/11 06:14:19;;;;;;;;;;;;;;;;;;5002539;28;43065;-78
2023/04/11 06:16:45;;;;;;;;;;;;;;;;;;5005265;28;43749;-78
2023/04/11 06:19:11;;;;;;;;;;;;;;;;;;5022907;28;43015;-78
2023/04/11 06:21:37;;;;;;;;;;;;;;;;;;5023413;28;43618;-76
2023/04/11 06:24:03;;;;;;;;;;;;;;;;;;5020644;28;43060;-77
2023/04/11 06:26:29;;;;;;;;;;;;;;;;;;5022987;28;42832;-77
2023/04/11 06:28:55;;;;;;;;;;;;;;;;;;5017393;28;43462;-78
2023/04/11 06:31:21;;;;;;;;;;;;;;;;;;5021654;28;44179;-77
2023/04/11 06:33:47;;;;;;;;;;;;;;;;;;5023792;28;43049;-78
2023/04/11 06:36:12;;;;;;;;;;;;;;;;;;5023419;28;43023;-78
2023/04/11 06:38:39;;;;;;;;;;;;;;;;;;5024066;28;42916;-77
2023/04/11 06:41:05;;;;;;;;;;;;;;;;;;5023488;28;43146;-78
2023/04/11 06:43:31;;;;;;;;;;;;;;;;;;5023682;28;43033;-77
2023/04/11 06:45:57;;;;;;;;;;;;;;;;;;5022900;28;43370;-78
2023/04/11 06:48:23;;;;;;;;;;;;;;;;;;5023251;28;43004;-77
2023/04/11 06:50:49;;;;;;;;;;;;;;;;;;5022503;28;43481;-76
2023/04/11 06:53:15;;;;;;;;;;;;;;;;;;5022846;28;43049;-78
2023/04/11 06:55:41;;;;;;;;;;;;;;;;;;5023912;28;43035;-77
2023/04/11 06:58:06;;;;;;;;;;;;;;;;;;5023513;28;43008;-76
2023/04/11 07:00:32;;;;;;;;;;;;;;;;;;5022569;28;43745;-78
2023/04/11 07:02:59;;;;;;;;;;;;;;;;;;5024093;28;42997;-77
2023/04/11 07:05:25;;;;;;;;;;;;;;;;;;5023198;28;43629;-75
2023/04/11 07:07:53;;;;;;;;;;;;;;;;;;5026418;28;42926;-76
2023/04/11 07:10:19;;;;;;;;;;;;;;;;;;5046870;28;42879;-75
2023/04/11 07:12:44;;;;;;;;;;;;;;;;;;5046615;28;42869;-75
2023/04/11 07:15:10;;;;;;;;;;;;;;;;;;5037269;28;43081;-80
2023/04/11 07:17:36;;;;;;;;;;;;;;;;;;5035740;28;42991;-78
2023/04/11 07:20:05;;;;;;;;;;;;;;;;;;5040652;28;42984;-77
2023/04/11 07:22:31;;;;;;;;;;;;;;;;;;5045949;28;43055;-78
2023/04/11 07:24:57;;;;;;;;;;;;;;;;;;5037014;28;43077;-78
2023/04/11 07:27:23;;;;;;;;;;;;;;;;;;5032428;28;43421;-76
2023/04/11 07:29:49;;;;;;;;;;;;;;;;;;5041738;28;43195;-77
2023/04/11 07:32:15;;;;;;;;;;;;;;;;;;5036241;28;43043;-77
2023/04/11 07:34:41;;;;;;;;;;;;;;;;;;5045194;28;43647;-77
2023/04/11 07:37:07;;;;;;;;;;;;;;;;;;5045069;28;43219;-78
2023/04/11 07:39:33;;;;;;;;;;;;;;;;;;5043915;28;43827;-77
2023/04/11 07:41:59;;;;;;;;;;;;;;;;;;5045526;28;43165;-77
2023/04/11 07:44:25;;;;;;;;;;;;;;;;;;5044241;28;43293;-77
2023/04/11 07:46:51;;;;;;;;;;;;;;;;;;5044670;28;43067;-77
2023/04/11 07:49:16;;;;;;;;;;;;;;;;;;5044467;28;42982;-78
2023/04/11 07:51:42;;;;;;;;;;;;;;;;;;5045604;28;43142;-78
2023/04/11 07:54:08;;;;;;;;;;;;;;;;;;5044008;28;42868;-77
2023/04/11 07:56:34;;;;;;;;;;;;;;;;;;5040815;28;43024;-79
2023/04/11 07:59:00;;;;;;;;;;;;;;;;;;5042442;28;43392;-78
2023/04/11 08:01:26;;;;;;;;;;;;;;;;;;5045308;28;43658;-79
2023/04/11 08:03:52;;;;;;;;;;;;;;;;;;5044872;28;43832;-78
2023/04/11 08:06:18;;;;;;;;;;;;;;;;;;5041816;28;43195;-79
2023/04/11 08:08:44;;;;;;;;;;;;;;;;;;5017185;28;43923;-77
2023/04/11 08:11:10;;;;;;;;;;;;;;;;;;5022787;28;43237;-74
2023/04/11 08:13:36;;;;;;;;;;;;;;;;;;5020474;28;43099;-75
2023/04/11 08:16:02;;;;;;;;;;;;;;;;;;5017788;28;42826;-77
2023/04/11 08:18:28;;;;;;;;;;;;;;;;;;4993556;28;44368;-74
2023/04/11 08:20:54;;;;;;;;;;;;;;;;;;5018310;28;43040;-76
2023/04/11 08:23:20;;;;;;;;;;;;;;;;;;5017004;28;43101;-75
2023/04/11 08:25:46;;;;;;;;;;;;;;;;;;5013300;28;43173;-75
2023/04/11 08:28:12;;;;;;;;;;;;;;;;;;5020664;28;43484;-76
2023/04/11 08:30:38;;;;;;;;;;;;;;;;;;5010531;28;43091;-75
2023/04/11 08:33:04;;;;;;;;;;;;;;;;;;5019984;28;42987;-76
2023/04/11 08:35:30;;;;;;;;;;;;;;;;;;5018284;28;43761;-75
2023/04/11 08:37:56;;;;;;;;;;;;;;;;;;5016807;28;43856;-78
2023/04/11 08:40:22;;;;;;;;;;;;;;;;;;5019238;28;43005;-76
2023/04/11 08:42:48;;;;;;;;;;;;;;;;;;5017849;28;42899;-75
2023/04/11 08:45:13;;;;;;;;;;;;;;;;;;5019100;28;42977;-76
2023/04/11 08:47:39;;;;;;;;;;;;;;;;;;5018180;28;42977;-78
2023/04/11 08:50:05;;;;;;;;;;;;;;;;;;5019440;28;43063;-76
2023/04/11 08:52:31;;;;;;;;;;;;;;;;;;5018460;28;43029;-75
2023/04/11 08:54:57;;;;;;;;;;;;;;;;;;5016245;28;42953;-75
2023/04/11 08:57:26;;;;;;;;;;;;;;;;;;5021656;28;43145;-74
2023/04/11 08:59:52;;;;;;;;;;;;;;;;;;4998258;28;44143;-75
2023/04/11 09:02:18;;;;;;;;;;;;;;;;;;5014008;28;44335;-78
2023/04/11 09:04:46;;;;;;;;;;;;;;;;;;5011600;28;42977;-77
2023/04/11 09:07:11;;;;;;;;;;;;;;;;;;5015249;28;42987;-77
2023/04/11 09:09:38;;;;;;;;;;;;;;;;;;5032912;28;42893;-77
2023/04/11 09:12:04;;;;;;;;;;;;;;;;;;5035624;28;43993;-77
2023/04/11 09:14:30;;;;;;;;;;;;;;;;;;5033543;28;43077;-77
2023/04/11 09:16:56;;;;;;;;;;;;;;;;;;5037944;28;43360;-76
2023/04/11 09:19:21;;;;;;;;;;;;;;;;;;5024042;28;42884;-78
2023/04/11 09:21:47;;;;;;;;;;;;;;;;;;5030611;28;42904;-78
2023/04/11 09:24:14;;;;;;;;;;;;;;;;;;5044310;28;43002;-79
2023/04/11 09:26:40;;;;;;;;;;;;;;;;;;5028638;28;43536;-78
2023/04/11 09:29:06;;;;;;;;;;;;;;;;;;5024015;28;43067;-77
2023/04/11 09:31:31;;;;;;;;;;;;;;;;;;5029065;28;43117;-77
2023/04/11 09:33:57;;;;;;;;;;;;;;;;;;5024441;28;42972;-77
2023/04/11 09:36:23;;;;;;;;;;;;;;;;;;5031205;28;43404;-80
2023/04/11 09:38:50;;;;;;;;;;;;;;;;;;5025823;28;42922;-79
2023/04/11 09:41:16;;;;;;;;;;;;;;;;;;5039064;28;43008;-74
2023/04/11 09:43:42;;;;;;;;;;;;;;;;;;5034915;28;42992;-77
2023/04/11 09:46:08;;;;;;;;;;;;;;;;;;5038597;28;43030;-77
2023/04/11 09:48:34;;;;;;;;;;;;;;;;;;5037319;28;42935;-80
2023/04/11 09:51:00;;;;;;;;;;;;;;;;;;5012582;28;45501;-87
2023/04/11 09:53:26;;;;;;;;;;;;;;;;;;5023738;28;42921;-83
2023/04/11 09:55:52;;;;;;;;;;;;;;;;;;5030800;28;43503;-81
2023/04/11 09:58:18;;;;;;;;;;;;;;;;;;5034040;28;43180;-86
2023/04/11 10:00:44;;;;;;;;;;;;;;;;;;5043597;28;44077;-84
2023/04/11 10:03:10;;;;;;;;;;;;;;;;;;5035772;28;43261;-79
2023/04/11 10:05:36;;;;;;;;;;;;;;;;;;5037777;28;42985;-77
2023/04/11 10:08:02;;;;;;;;;;;;;;;;;;5039959;28;43210;-76
2023/04/11 10:10:28;;;;;;;;;;;;;;;;;;5031789;28;43456;-89
2023/04/11 10:12:54;;;;;;;;;;;;;;;;;;5034973;28;42889;-90
2023/04/11 10:15:21;;;;;;;;;;;;;;;;;;5020316;28;43491;-84
2023/04/11 10:17:47;;;;;;;;;;;;;;;;;;5012062;28;42990;-87
2023/04/11 10:20:13;;;;;;;;;;;;;;;;;;5039451;28;43565;-87
2023/04/11 10:22:38;;;;;;;;;;;;;;;;;;5004214;28;43254;-88
2023/04/11 10:25:07;;;;;;;;;;;;;;;;;;5035985;28;43021;-85
2023/04/11 10:27:33;;;;;;;;;;;;;;;;;;5023106;28;43612;-87
2023/04/11 10:29:59;;;;;;;;;;;;;;;;;;5024545;28;43171;-84
2023/04/11 10:32:25;;;;;;;;;;;;;;;;;;5025555;28;43252;-84
2023/04/11 10:35:04;;;;;;;;;;;;;;;;;;;;;
2023/04/11 10:47:58;;;;;;;;;;;;;;;;;;5879919;22;43512;-92
2023/04/11 10:50:40;;;;;;;;;;;;;;;;;;5023489;28;43457;-93
2023/04/11 10:53:13;;;;;;;;;;;;;;;;;;5027620;28;42886;-85
2023/04/11 10:55:39;;;;;;;;;;;;;;;;;;5042712;28;43192;-89
2023/04/11 10:58:08;;;;;;;;;;;;;;;;;;5043154;28;43260;-89
2023/04/11 11:00:34;;;;;;;;;;;;;;;;;;5038848;28;43439;-91
2023/04/11 11:03:00;;;;;;;;;;;;;;;;;;5039001;28;43195;-90
2023/04/11 11:05:26;;;;;;;;;;;;;;;;;;5040463;28;43023;-86
2023/04/11 11:07:52;;;;;;;;;;;;;;;;;;5034887;28;42936;-85
2023/04/11 11:10:17;;;;;;;;;;;;;;;;;;5032159;28;43390;-86
2023/04/11 11:12:43;;;;;;;;;;;;;;;;;;5025524;28;42968;-85
2023/04/11 11:15:09;;;;;;;;;;;;;;;;;;5045688;28;43048;-87
2023/04/11 11:17:35;;;;;;;;;;;;;;;;;;5038811;28;43111;-86
2023/04/11 11:20:01;;;;;;;;;;;;;;;;;;5046308;28;42972;-86
2023/04/11 11:22:29;;;;;;;;;;;;;;;;;;5042401;28;43101;-85
2023/04/11 11:24:55;;;;;;;;;;;;;;;;;;5024876;28;44152;-87
2023/04/11 11:27:21;;;;;;;;;;;;;;;;;;5044365;28;43073;-89
2023/04/11 11:29:47;;;;;;;;;;;;;;;;;;5045399;28;43123;-92
2023/04/11 11:32:13;;;;;;;;;;;;;;;;;;5043645;28;43174;-89
2023/04/11 11:34:39;;;;;;;;;;;;;;;;;;5041153;28;43378;-93
2023/04/11 11:37:05;;;;;;;;;;;;;;;;;;5042828;28;42433;-96
2023/04/11 11:39:31;;;;;;;;;;;;;;;;;;5052061;28;42484;-96
2023/04/11 11:41:57;;;;;;;;;;;;;;;;;;5054999;28;42744;-93
2023/04/11 11:44:23;;;;;;;;;;;;;;;;;;5052887;28;42984;-94
2023/04/11 11:46:49;;;;;;;;;;;;;;;;;;5042980;28;42787;-95
2023/04/11 11:49:14;;;;;;;;;;;;;;;;;;5021329;28;42968;-95
2023/04/11 11:51:40;;;;;;;;;;;;;;;;;;5012067;28;42931;-90
2023/04/11 11:54:09;;;;;;;;;;;;;;;;;;5021103;28;43060;-88
2023/04/11 11:56:35;;;;;;;;;;;;;;;;;;5019144;28;43217;-89
2023/04/11 11:59:03;;;;;;;;;;;;;;;;;;5000217;28;44259;-88
2023/04/11 12:01:29;;;;;;;;;;;;;;;;;;5003608;28;42963;-87
2023/04/11 12:03:56;;;;;;;;;;;;;;;;;;5024884;28;43223;-87
2023/04/11 12:06:22;;;;;;;;;;;;;;;;;;4998707;28;43164;-88
2023/04/11 12:08:52;;;;;;;;;;;;;;;;;;5021885;28;64394;-87
2023/04/11 12:11:18;;;;;;;;;;;;;;;;;;5019924;28;43030;-85
2023/04/11 12:13:45;;;;;;;;;;;;;;;;;;5011935;28;43955;-92
2023/04/11 12:16:12;;;;;;;;;;;;;;;;;;5023059;28;43196;-85
2023/04/11 12:18:38;;;;;;;;;;;;;;;;;;5024204;28;43004;-91
2023/04/11 12:21:04;;;;;;;;;;;;;;;;;;5025055;28;42978;-89
2023/04/11 12:23:30;;;;;;;;;;;;;;;;;;4990697;28;44612;-85
2023/04/11 12:25:56;;;;;;;;;;;;;;;;;;5009311;28;42930;-87
2023/04/11 12:28:22;;;;;;;;;;;;;;;;;;5013530;28;43022;-86
2023/04/11 12:30:48;;;;;;;;;;;;;;;;;;5018656;28;43043;-85
2023/04/11 12:33:15;;;;;;;;;;;;;;;;;;5025455;28;42795;-86
2023/04/11 12:35:41;;;;;;;;;;;;;;;;;;4997766;28;43047;-86
2023/04/11 12:38:06;;;;;;;;;;;;;;;;;;5006135;28;44390;-85
2023/04/11 12:40:32;;;;;;;;;;;;;;;;;;5013471;28;42902;-86
2023/04/11 12:42:58;;;;;;;;;;;;;;;;;;4997623;28;44671;-86
2023/04/11 12:45:24;;;;;;;;;;;;;;;;;;5006844;28;42981;-82
2023/04/11 12:47:50;;;;;;;;;;;;;;;;;;5006119;28;43429;-82
2023/04/11 12:50:16;;;;;;;;;;;;;;;;;;5006493;28;43101;-82
2023/04/11 12:52:42;;;;;;;;;;;;;;;;;;5019260;28;43362;-82
2023/04/11 12:55:08;;;;;;;;;;;;;;;;;;5019508;28;43030;-90
2023/04/11 12:57:34;;;;;;;;;;;;;;;;;;5005161;28;44749;-86
2023/04/11 13:00:03;;;;;;;;;;;;;;;;;;5006567;28;42900;-85
2023/04/11 13:02:30;;;;;;;;;;;;;;;;;;5001238;28;45113;-82
2023/04/11 13:04:56;;;;;;;;;;;;;;;;;;5012769;28;42922;-84
2023/04/11 13:07:22;;;;;;;;;;;;;;;;;;5023919;28;43162;-82
2023/04/11 13:09:48;;;;;;;;;;;;;;;;;;5024751;28;42933;-83
2023/04/11 13:12:14;;;;;;;;;;;;;;;;;;5023942;28;42893;-86
2023/04/11 13:14:40;;;;;;;;;;;;;;;;;;4996231;28;43125;-84
2023/04/11 13:17:06;;;;;;;;;;;;;;;;;;5023842;28;42882;-82
2023/04/11 13:19:39;;;;;;;;;;;;;;;;;;5024500;28;43156;-86
2023/04/11 13:22:05;;;;;;;;;;;;;;;;;;5003174;28;44535;-82
2023/04/11 13:24:32;;;;;;;;;;;;;;;;;;5024356;28;42810;-83
2023/04/11 13:26:58;;;;;;;;;;;;;;;;;;5005903;28;45545;-81
2023/04/11 13:29:24;;;;;;;;;;;;;;;;;;5017794;28;43058;-83
2023/04/11 13:31:50;;;;;;;;;;;;;;;;;;5005824;28;44907;-82
2023/04/11 13:34:16;;;;;;;;;;;;;;;;;;5024050;28;43060;-81
2023/04/11 13:36:42;;;;;;;;;;;;;;;;;;5024403;28;43628;-82
2023/04/11 13:39:08;;;;;;;;;;;;;;;;;;5024140;28;42939;-83
2023/04/11 13:41:34;;;;;;;;;;;;;;;;;;5020189;28;43571;-83
2023/04/11 13:44:00;;;;;;;;;;;;;;;;;;5023772;28;43115;-82
2023/04/11 13:46:26;;;;;;;;;;;;;;;;;;5022900;28;43087;-83
2023/04/11 13:48:52;;;;;;;;;;;;;;;;;;5035477;28;43069;-83
2023/04/11 13:51:18;;;;;;;;;;;;;;;;;;5021223;28;44500;-77
2023/04/11 13:53:44;;;;;;;;;;;;;;;;;;5034345;28;43155;-81
2023/04/11 13:56:10;;;;;;;;;;;;;;;;;;5040384;28;42980;-84
2023/04/11 13:58:37;;;;;;;;;;;;;;;;;;5042076;28;43166;-83
2023/04/11 14:01:03;;;;;;;;;;;;;;;;;;5033288;28;43409;-82
2023/04/11 14:03:32;;;;;;;;;;;;;;;;;;5043299;28;42936;-82
2023/04/11 14:06:02;;;;;;;;;;;;;;;;;;5022757;28;44548;-82
2023/04/11 14:08:28;;;;;;;;;;;;;;;;;;5040936;28;43597;-82
2023/04/11 14:10:54;;;;;;;;;;;;;;;;;;5042292;28;43658;-80
2023/04/11 14:13:20;;;;;;;;;;;;;;;;;;5041845;28;42967;-83
2023/04/11 14:15:46;;;;;;;;;;;;;;;;;;5039685;28;43416;-80
2023/04/11 14:18:11;;;;;;;;;;;;;;;;;;5032825;28;42942;-79
2023/04/11 14:20:37;;;;;;;;;;;;;;;;;;5028746;28;43039;-92
2023/04/11 14:23:03;;;;;;;;;;;;;;;;;;5042615;28;42935;-81
2023/04/11 14:25:29;;;;;;;;;;;;;;;;;;5036967;28;43751;-80
2023/04/11 14:27:55;;;;;;;;;;;;;;;;;;5032193;28;42976;-79
2023/04/11 14:30:21;;;;;;;;;;;;;;;;;;5019515;28;44655;-83
2023/04/11 14:32:47;;;;;;;;;;;;;;;;;;5034057;28;43004;-80
2023/04/11 14:35:13;;;;;;;;;;;;;;;;;;5036874;28;43663;-81
2023/04/11 14:37:39;;;;;;;;;;;;;;;;;;5041157;28;43021;-80
2023/04/11 14:40:06;;;;;;;;;;;;;;;;;;5041734;28;44544;-78
2023/04/11 14:42:32;;;;;;;;;;;;;;;;;;5041433;28;43236;-79
2023/04/11 14:44:57;;;;;;;;;;;;;;;;;;5042480;28;43016;-78
2023/04/11 14:47:23;;;;;;;;;;;;;;;;;;5042111;28;42966;-79
2023/04/11 14:49:49;;;;;;;;;;;;;;;;;;5040209;28;42819;-81
2023/04/11 14:52:15;;;;;;;;;;;;;;;;;;5032696;28;42893;-77
2023/04/11 14:54:41;;;;;;;;;;;;;;;;;;5033529;28;43213;-77
2023/04/11 14:57:07;;;;;;;;;;;;;;;;;;5042789;28;43991;-79
2023/04/11 14:59:33;;;;;;;;;;;;;;;;;;5042451;28;43577;-80
2023/04/11 15:01:59;;;;;;;;;;;;;;;;;;5042905;28;43065;-79
2023/04/11 15:04:25;;;;;;;;;;;;;;;;;;5042614;28;43064;-83
2023/04/11 15:06:51;;;;;;;;;;;;;;;;;;5042343;28;43145;-79
2023/04/11 15:09:19;;;;;;;;;;;;;;;;;;5029668;28;43674;-92
2023/04/11 15:11:45;;;;;;;;;;;;;;;;;;5027845;28;42965;-89
2023/04/11 15:14:11;;;;;;;;;;;;;;;;;;5035502;28;42946;-83
2023/04/11 15:16:37;;;;;;;;;;;;;;;;;;5033532;28;43082;-84
2023/04/11 15:19:03;;;;;;;;;;;;;;;;;;5039926;28;43507;-80
2023/04/11 15:21:29;;;;;;;;;;;;;;;;;;5024794;28;42981;-83
2023/04/11 15:23:55;;;;;;;;;;;;;;;;;;5030882;28;43404;-83
2023/04/11 15:26:21;;;;;;;;;;;;;;;;;;5035547;28;43166;-86
2023/04/11 15:28:47;;;;;;;;;;;;;;;;;;5041645;28;43612;-83
2023/04/11 15:31:13;;;;;;;;;;;;;;;;;;5044252;28;42960;-84
2023/04/11 15:33:39;;;;;;;;;;;;;;;;;;5036215;28;43459;-83
2023/04/11 15:36:05;;;;;;;;;;;;;;;;;;5044971;28;43149;-82
2023/04/11 15:38:31;;;;;;;;;;;;;;;;;;5044669;28;42999;-83
2023/04/11 15:40:58;;;;;;;;;;;;;;;;;;5034791;28;42988;-85
2023/04/11 15:43:24;;;;;;;;;;;;;;;;;;5042854;28;43767;-86
2023/04/11 15:45:51;;;;;;;;;;;;;;;;;;5040582;28;44193;-84
2023/04/11 15:48:17;;;;;;;;;;;;;;;;;;5043612;28;42951;-84
2023/04/11 15:50:43;;;;;;;;;;;;;;;;;;5045171;28;43147;-85
2023/04/11 15:53:09;;;;;;;;;;;;;;;;;;5034343;28;43009;-79
2023/04/11 15:55:35;;;;;;;;;;;;;;;;;;5034826;28;43235;-79
2023/04/11 15:58:01;;;;;;;;;;;;;;;;;;5013718;28;44721;-81
2023/04/11 16:00:30;;;;;;;;;;;;;;;;;;5041295;28;43300;-82
2023/04/11 16:03:01;;;;;;;;;;;;;;;;;;5042995;28;43077;-81
2023/04/11 16:05:27;;;;;;;;;;;;;;;;;;5043645;28;42937;-83
2023/04/11 16:07:53;;;;;;;;;;;;;;;;;;5044014;28;43447;-81
2023/04/11 16:10:19;;;;;;;;;;;;;;;;;;5045067;28;43019;-81
2023/04/11 16:12:45;;;;;;;;;;;;;;;;;;5042524;28;43687;-82
2023/04/11 16:15:11;;;;;;;;;;;;;;;;;;5040204;28;43283;-82
2023/04/11 16:17:37;;;;;;;;;;;;;;;;;;5017500;28;44041;-82
2023/04/11 16:20:06;;;;;;;;;;;;;;;;;;5044993;28;42977;-82
2023/04/11 16:22:32;;;;;;;;;;;;;;;;;;5026308;28;44809;-82
2023/04/11 16:25:00;;;;;;;;;;;;;;;;;;5030637;28;43326;-81
2023/04/11 16:27:26;;;;;;;;;;;;;;;;;;5044636;28;43083;-84
2023/04/11 16:29:53;;;;;;;;;;;;;;;;;;5045825;28;43062;-83
2023/04/11 16:32:19;;;;;;;;;;;;;;;;;;5040649;28;43061;-78
2023/04/11 16:34:45;;;;;;;;;;;;;;;;;;5043985;28;43465;-83
2023/04/11 16:37:11;;;;;;;;;;;;;;;;;;5034816;28;43693;-79
2023/04/11 16:39:37;;;;;;;;;;;;;;;;;;5042120;28;42987;-86
2023/04/11 16:42:03;;;;;;;;;;;;;;;;;;5044725;28;42930;-84
2023/04/11 16:44:29;;;;;;;;;;;;;;;;;;5031342;28;43007;-83
2023/04/11 16:46:55;;;;;;;;;;;;;;;;;;5021657;28;45157;-83
2023/04/11 16:49:21;;;;;;;;;;;;;;;;;;5034514;28;43452;-81